Time;durP1;ratioP1;P1;durP2;ratioP2;P2;SDS_P1;SDS_P2;PMS_P1;PMS_P2;Temp;Humidity;BMP_temperature;BMP_pressure;BME280_temperature;BME280_humidity;BME280_pressure;Samples;Min_cycle;Max_cycle;Signal;HPM_P1;HPM_P2
2022/09/07 00:01:19;;;;;;;18.50;13.93;;;;;;;;;;5047904;28;20040;-72
2022/09/07 00:03:45;;;;;;;16.58;13.60;;;;;;;;;;5033167;28;20079;-72
2022/09/07 00:06:13;;;;;;;18.23;14.88;;;19.70;99.90;;;;;;5046188;28;20057;-72
2022/09/07 00:08:40;;;;;;;18.83;14.63;;;19.50;99.90;;;;;;5033498;28;20042;-72
2022/09/07 00:11:10;;;;;;;17.60;14.13;;;19.60;99.90;;;;;;5032855;28;20123;-73
2022/09/07 00:13:38;;;;;;;21.55;14.38;;;19.70;99.90;;;;;;5032043;28;20029;-73
2022/09/07 00:16:09;;;;;;;18.75;14.00;;;19.60;99.90;;;;;;5033507;28;20036;-72
2022/09/07 00:18:35;;;;;;;18.58;12.15;;;;;;;;;;5032117;28;20108;-72
2022/09/07 00:21:06;;;;;;;19.40;12.40;;;;;;;;;;5031103;28;20381;-72
2022/09/07 00:23:34;;;;;;;14.63;12.93;;;19.60;99.90;;;;;;5043926;28;20130;-71
2022/09/07 00:26:01;;;;;;;17.67;13.25;;;;;;;;;;5032215;28;20029;-73
2022/09/07 00:28:27;;;;;;;15.40;13.00;;;;;;;;;;5032132;28;20128;-73
2022/09/07 00:30:53;;;;;;;14.52;12.30;;;;;;;;;;5048335;28;20033;-72
2022/09/07 00:33:20;;;;;;;13.68;12.30;;;;;;;;;;5048314;28;20029;-72
2022/09/07 00:35:46;;;;;;;16.20;12.98;;;;;;;;;;5037247;28;20049;-72
2022/09/07 00:38:11;;;;;;;18.55;13.98;;;;;;;;;;5049959;28;20082;-72
2022/09/07 00:40:37;;;;;;;16.73;13.65;;;;;;;;;;5050940;28;20485;-73
2022/09/07 00:43:04;;;;;;;14.43;12.95;;;;;;;;;;5051144;28;20029;-73
2022/09/07 00:45:30;;;;;;;15.70;14.00;;;;;;;;;;5050841;28;20045;-73
2022/09/07 00:48:13;;;;;;;18.95;13.70;;;19.80;99.90;;;;;;5051971;28;20079;-76
2022/09/07 00:50:51;;;;;;;16.63;14.25;;;19.80;99.90;;;;;;5050137;28;20025;-73
2022/09/07 00:53:25;;;;;;;18.30;13.10;;;19.90;99.90;;;;;;5051279;28;20389;-73
2022/09/07 00:55:51;;;;;;;20.50;13.80;;;;;;;;;;5049209;28;20035;-73
2022/09/07 00:58:20;;;;;;;20.08;13.52;;;19.80;99.90;;;;;;5047845;28;20055;-72
2022/09/07 01:00:47;;;;;;;25.67;19.48;;;;;;;;;;5047535;28;20116;-73
2022/09/07 01:03:14;;;;;;;22.42;15.93;;;;;;;;;;5052585;28;20044;-73
2022/09/07 01:05:42;;;;;;;24.33;17.13;;;;;;;;;;5051663;28;20040;-73
2022/09/07 01:08:09;;;;;;;19.08;16.80;;;;;;;;;;5038915;28;20173;-74
2022/09/07 01:10:36;;;;;;;23.83;15.75;;;;;;;;;;5049399;28;20175;-73
2022/09/07 01:13:02;;;;;;;14.90;11.95;;;;;;;;;;5050188;28;20106;-77
2022/09/07 01:15:54;;;;;;;17.55;10.93;;;19.30;99.90;;;;;;5044299;28;20060;-72
2022/09/07 01:18:21;;;;;;;;;;;;;;;;;;5040874;28;20064;-73
2022/09/07 01:20:52;;;;;;;14.25;9.52;;;;;;;;;;5050682;28;19909;-72
2022/09/07 01:23:39;;;;;;;16.83;8.10;;;19.20;99.90;;;;;;5050577;28;20369;-72
2022/09/07 01:26:04;;;;;;;11.68;8.82;;;;;;;;;;5040479;28;20568;-72
2022/09/07 01:28:32;;;;;;;15.60;10.57;;;;;;;;;;5029275;28;20108;-73
2022/09/07 01:31:03;;;;;;;15.32;11.05;;;;;;;;;;5050584;28;20025;-72
2022/09/07 01:33:36;;;;;;;16.92;9.68;;;;;;;;;;5050048;28;20033;-72
2022/09/07 01:36:06;;;;;;;19.92;10.20;;;;;;;;;;5053824;28;20736;-72
2022/09/07 01:38:37;;;;;;;17.85;9.00;;;;;;;;;;5068899;28;20021;-72
2022/09/07 01:41:05;;;;;;;18.10;8.27;;;;;;;;;;5048267;28;20028;-74
2022/09/07 01:43:54;;;;;;;12.77;6.78;;;;;;;;;;5050682;28;20037;-72
2022/09/07 01:46:20;;;;;;;9.52;7.25;;;;;;;;;;5030662;28;20559;-71
2022/09/07 01:48:48;;;;;;;9.07;6.43;;;;;;;;;;5029662;28;20025;-72
2022/09/07 01:51:16;;;;;;;11.25;6.60;;;;;;;;;;5047741;28;20036;-72
2022/09/07 01:53:47;;;;;;;10.50;7.72;;;;;;;;;;5050797;28;20029;-73
2022/09/07 01:56:42;;;;;;;11.90;7.85;;;;;;;;;;5050668;28;20446;-72
2022/09/07 01:59:08;;;;;;;8.75;5.80;;;;;;;;;;5030793;28;20033;-73
2022/09/07 02:01:46;;;;;;;5.47;4.43;;;;;;;;;;5048058;28;20381;-72
2022/09/07 02:04:16;;;;;;;10.32;5.10;;;;;;;;;;5047458;28;20067;-72
2022/09/07 02:06:46;;;;;;;10.82;6.00;;;;;;;;;;5047134;28;20039;-74
2022/09/07 02:09:18;;;;;;;10.52;5.80;;;;;;;;;;5047359;28;20083;-72
2022/09/07 02:11:46;;;;;;;11.68;5.45;;;;;;;;;;5070047;28;20040;-73
2022/09/07 02:14:22;;;;;;;8.75;6.05;;;;;;;;;;5037189;28;20028;-73
2022/09/07 02:16:52;;;;;;;10.20;5.47;;;;;;;;;;5031818;28;20029;-73
2022/09/07 02:19:19;;;;;;;10.55;5.45;;;;;;;;;;5048490;28;20094;-72
2022/09/07 02:21:48;;;;;;;8.02;5.50;;;;;;;;;;5048313;28;20056;-69
2022/09/07 02:24:25;;;;;;;9.18;5.40;;;;;;;;;;5050774;28;20040;-68
2022/09/07 02:26:53;;;;;;;8.25;5.70;;;;;;;;;;5053629;28;20480;-68
2022/09/07 02:29:19;;;;;;;10.63;5.05;;;;;;;;;;5047455;28;20029;-69
2022/09/07 02:31:46;;;;;;;9.40;4.70;;;;;;;;;;5049160;28;20037;-69
2022/09/07 02:34:13;;;;;;;9.65;4.80;;;;;;;;;;5049107;28;20028;-69
2022/09/07 02:36:43;;;;;;;7.38;5.40;;;;;;;;;;5048180;28;20098;-69
2022/09/07 02:39:09;;;;;;;11.13;5.43;;;;;;;;;;5049492;28;20168;-70
2022/09/07 02:41:39;;;;;;;7.93;4.25;;;;;;;;;;5050351;28;20078;-70
2022/09/07 02:44:14;;;;;;;6.13;4.68;;;;;;;;;;5051568;28;20038;-71
2022/09/07 02:46:47;;;;;;;6.63;4.63;;;;;;;;;;5032081;28;20032;-70
2022/09/07 02:49:13;;;;;;;5.60;4.20;;;;;;;;;;5059178;28;20104;-71
2022/09/07 02:51:39;;;;;;;7.93;3.90;;;;;;;;;;5055066;28;20111;-71
2022/09/07 02:54:14;;;;;;;6.85;3.58;;;;;;;;;;5058079;28;20048;-72
2022/09/07 02:56:43;;;;;;;6.07;4.15;;;;;;;;;;5044891;28;20021;-72
2022/09/07 02:59:19;;;;;;;5.63;3.92;;;;;;;;;;5053088;28;20029;-72
2022/09/07 03:02:03;;;;;;;4.25;3.60;;;;;;;;;;5053884;28;20104;-72
2022/09/07 03:04:41;;;;;;;6.38;3.42;;;;;;;;;;5054014;28;20457;-72
2022/09/07 03:07:11;;;;;;;7.30;3.50;;;;;;;;;;5049620;28;20142;-71
2022/09/07 03:09:39;;;;;;;6.82;2.90;;;;;;;;;;5045569;28;20025;-74
2022/09/07 03:12:06;;;;;;;6.25;3.40;;;;;;;;;;5036288;28;20103;-72
2022/09/07 03:14:33;;;;;;;5.65;3.50;;;;;;;;;;5035796;28;20082;-72
2022/09/07 03:16:59;;;;;;;5.25;3.33;;;;;;;;;;5053714;28;20025;-72
2022/09/07 03:19:26;;;;;;;9.88;3.17;;;;;;;;;;5051163;28;20048;-73
2022/09/07 03:21:52;;;;;;;6.47;2.85;;;;;;;;;;5045497;28;20088;-72
2022/09/07 03:24:18;;;;;;;6.07;3.15;;;;;;;;;;5050435;28;20099;-71
2022/09/07 03:26:45;;;;;;;10.68;3.20;;;;;;;;;;5035657;28;20171;-71
2022/09/07 03:29:11;;;;;;;8.18;3.40;;;;;;;;;;5053720;28;20025;-72
2022/09/07 03:31:37;;;;;;;5.10;3.10;;;;;;;;;;5050531;28;20025;-71
2022/09/07 03:34:03;;;;;;;4.63;2.70;;;;;;;;;;5053456;28;20025;-71
2022/09/07 03:36:30;;;;;;;5.10;2.63;;;;;;;;;;5038550;28;20045;-71
2022/09/07 03:38:58;;;;;;;5.38;2.55;;;;;;;;;;5049453;28;20033;-71
2022/09/07 03:41:24;;;;;;;6.63;3.17;;;;;;;;;;5031952;28;20021;-71
2022/09/07 03:43:51;;;;;;;4.03;2.83;;;;;;;;;;5027928;28;20141;-71
2022/09/07 03:46:18;;;;;;;6.97;4.13;;;;;;;;;;5042497;28;20472;-71
2022/09/07 03:48:44;;;;;;;3.25;2.38;;;;;;;;;;5051342;28;20025;-71
2022/09/07 03:51:11;;;;;;;3.45;2.53;;;;;;;;;;5067233;28;20107;-71
2022/09/07 03:53:38;;;;;;;5.00;2.22;;;;;;;;;;5058665;28;20041;-74
2022/09/07 03:56:25;;;;;;;3.17;2.55;;;;;;;;;;5051521;28;20029;-75
2022/09/07 03:58:51;;;;;;;3.10;2.30;;;;;;;;;;5052557;28;20495;-71
2022/09/07 04:01:18;;;;;;;8.13;2.50;;;;;;;;;;5049791;28;20033;-71
2022/09/07 04:03:45;;;;;;;3.65;2.45;;;;;;;;;;5051681;28;20047;-71
2022/09/07 04:06:11;;;;;;;6.15;2.00;;;;;;;;;;5052328;28;20052;-71
2022/09/07 04:08:39;;;;;;;5.68;2.38;;;;;;;;;;5051886;28;20040;-71
2022/09/07 04:11:05;;;;;;;4.43;2.17;;;;;;;;;;5051956;28;20040;-71
2022/09/07 04:13:33;;;;;;;9.48;2.53;;;;;;;;;;5051688;28;20120;-71
2022/09/07 04:15:59;;;;;;;4.18;2.08;;;;;;;;;;5049565;28;20373;-71
2022/09/07 04:18:25;;;;;;;4.93;2.28;;;;;;;;;;5050318;28;20021;-71
2022/09/07 04:20:51;;;;;;;6.00;1.85;;;;;;;;;;5055107;28;20033;-71
2022/09/07 04:23:18;;;;;;;4.78;2.10;;;;;;;;;;5049574;28;20553;-71
2022/09/07 04:25:50;;;;;;;7.93;2.17;;;;;;;;;;5051892;28;20041;-71
2022/09/07 04:28:17;;;;;;;4.55;2.38;;;;;;;;;;5050863;28;20033;-71
2022/09/07 04:30:43;;;;;;;6.20;2.00;;;;;;;;;;5052180;28;20037;-71
2022/09/07 04:33:09;;;;;;;5.20;2.20;;;;;;;;;;5044810;28;20036;-72
2022/09/07 04:35:36;;;;;;;6.40;3.20;;;;;;;;;;5037462;28;20053;-73
2022/09/07 04:38:02;;;;;;;6.45;3.00;;;;;;;;;;5048019;28;20095;-72
2022/09/07 04:40:28;;;;;;;5.55;2.13;;;;;;;;;;5051308;28;20028;-72
2022/09/07 04:42:54;;;;;;;11.35;2.55;;;;;;;;;;5049815;28;20029;-72
2022/09/07 04:45:20;;;;;;;7.55;2.60;;;;;;;;;;5049049;28;20427;-72
2022/09/07 04:47:47;;;;;;;6.35;2.78;;;;;;;;;;5016994;28;20041;-77
2022/09/07 04:50:13;;;;;;;6.93;3.05;;;;;;;;;;5049631;28;20048;-78
2022/09/07 04:52:39;;;;;;;5.45;2.55;;;;;;;;;;5046230;28;20059;-68
2022/09/07 04:55:05;;;;;;;8.05;3.97;;;;;;;;;;5050756;28;20033;-68
2022/09/07 04:57:31;;;;;;;11.48;4.57;;;;;;;;;;5050751;28;20025;-68
2022/09/07 04:59:58;;;;;;;6.78;2.90;;;;;;;;;;5051996;28;20491;-67
2022/09/07 05:02:24;;;;;;;7.65;2.97;;;;;;;;;;5043386;28;20562;-72
2022/09/07 05:04:50;;;;;;;6.43;2.58;;;;;;;;;;5048951;28;20039;-73
2022/09/07 05:07:16;;;;;;;3.42;2.55;;;;;;;;;;5048368;28;20041;-73
2022/09/07 05:09:42;;;;;;;6.45;2.90;;;;;;;;;;5049179;28;20668;-77
2022/09/07 05:12:08;;;;;;;6.55;3.08;;;;;;;;;;5031726;28;20045;-73
2022/09/07 05:14:34;;;;;;;5.68;3.20;;;;;;;;;;5045748;28;20029;-73
2022/09/07 05:17:01;;;;;;;5.25;2.72;;;;;;;;;;5049953;28;20028;-73
2022/09/07 05:19:27;;;;;;;2.95;2.75;;;;;;;;;;5031723;28;20029;-73
2022/09/07 05:21:53;;;;;;;3.75;2.97;;;;;;;;;;5044073;28;20041;-73
2022/09/07 05:24:19;;;;;;;6.35;2.97;;;;;;;;;;5052137;28;20341;-73
2022/09/07 05:26:45;;;;;;;6.90;3.85;;;;;;;;;;5048104;28;20115;-74
2022/09/07 05:29:11;;;;;;;9.63;3.58;;;;;;;;;;5051281;28;20166;-73
2022/09/07 05:31:37;;;;;;;5.28;3.47;;;;;;;;;;5049344;28;20036;-74
2022/09/07 05:34:03;;;;;;;7.15;3.97;;;;;;;;;;5055866;28;20357;-73
2022/09/07 05:36:29;;;;;;;5.15;3.70;;;;;;;;;;5028571;28;20098;-73
2022/09/07 05:38:57;;;;;;;4.95;3.83;;;;;;;;;;5048857;28;20433;-73
2022/09/07 05:41:24;;;;;;;8.10;4.32;;;;;;;;;;5031571;28;20044;-73
2022/09/07 05:43:50;;;;;;;8.65;6.55;;;;;;;;;;5035302;28;20049;-72
2022/09/07 05:46:17;;;;;;;6.05;4.45;;;;;;;;;;5032269;28;20065;-72
2022/09/07 05:48:43;;;;;;;10.90;7.68;;;;;;;;;;5052449;28;20033;-72
2022/09/07 05:51:10;;;;;;;8.00;6.25;;;;;;;;;;5046861;28;20033;-70
2022/09/07 05:53:37;;;;;;;9.10;5.00;;;;;;;;;;5034734;28;20051;-70
2022/09/07 05:56:03;;;;;;;6.80;4.60;;;;;;;;;;5061084;28;20432;-71
2022/09/07 05:58:30;;;;;;;8.07;4.70;;;;;;;;;;5050544;28;20087;-71
2022/09/07 06:01:00;;;;;;;8.02;5.03;;;;;;;;;;5036356;28;20510;-73
2022/09/07 06:03:27;;;;;;;7.80;5.38;;;;;;;;;;5026310;28;20036;-72
2022/09/07 06:06:01;;;;;;;6.28;5.60;;;;;;;;;;5047661;28;20052;-72
2022/09/07 06:08:27;;;;;;;7.13;5.47;;;;;;;;;;5033193;28;20033;-72
2022/09/07 06:10:53;;;;;;;24.33;18.50;;;;;;;;;;5048763;28;20034;-72
2022/09/07 06:13:19;;;;;;;9.30;5.78;;;;;;;;;;5049893;28;20041;-73
2022/09/07 06:15:45;;;;;;;6.65;5.40;;;;;;;;;;5049794;28;20044;-72
2022/09/07 06:18:11;;;;;;;5.90;5.30;;;;;;;;;;5050535;28;20376;-71
2022/09/07 06:20:37;;;;;;;9.82;6.03;;;;;;;;;;5040211;28;20025;-72
2022/09/07 06:23:03;;;;;;;6.72;5.93;;;;;;;;;;5053726;28;20119;-72
2022/09/07 06:25:29;;;;;;;8.23;6.88;;;;;;;;;;5054821;28;20056;-73
2022/09/07 06:27:55;;;;;;;7.63;6.63;;;;;;;;;;5051987;28;20467;-72
2022/09/07 06:30:21;;;;;;;8.18;6.78;;;;;;;;;;5047674;28;20033;-73
2022/09/07 06:32:47;;;;;;;11.40;6.50;;;;;;;;;;5054112;28;20104;-71
2022/09/07 06:35:14;;;;;;;9.60;6.45;;;;;;;;;;5052466;28;20083;-71
2022/09/07 06:37:41;;;;;;;18.73;8.15;;;;;;;;;;5029488;28;20041;-73
2022/09/07 06:40:07;;;;;;;10.63;6.97;;;;;;;;;;5026103;28;20041;-71
2022/09/07 06:42:33;;;;;;;9.75;7.28;;;;;;;;;;5043358;28;20473;-71
2022/09/07 06:44:59;;;;;;;8.93;6.93;;;;;;;;;;5033634;28;20176;-71
2022/09/07 06:47:25;;;;;;;13.55;8.52;;;;;;;;;;5033557;28;20073;-71
2022/09/07 06:49:51;;;;;;;14.00;8.38;;;;;;;;;;5034903;28;20038;-72
2022/09/07 06:52:17;;;;;;;13.38;9.20;;;;;;;;;;5033150;28;20188;-71
2022/09/07 06:54:43;;;;;;;11.00;9.82;;;;;;;;;;5034621;28;20033;-71
2022/09/07 06:57:09;;;;;;;12.75;9.85;;;;;;;;;;5034255;28;20033;-71
2022/09/07 06:59:35;;;;;;;10.63;9.50;;;;;;;;;;5038833;28;20499;-71
2022/09/07 07:02:01;;;;;;;14.20;10.30;;;;;;;;;;5015530;28;20048;-71
2022/09/07 07:04:27;;;;;;;13.05;10.60;;;;;;;;;;5032699;28;20041;-71
2022/09/07 07:06:53;;;;;;;12.80;9.95;;;;;;;;;;5034002;28;20088;-71
2022/09/07 07:09:19;;;;;;;15.50;10.15;;;;;;;;;;5033653;28;20037;-71
2022/09/07 07:11:46;;;;;;;23.05;10.45;;;;;;;;;;5030233;28;20109;-71
2022/09/07 07:14:15;;;;;;;16.85;11.13;;;;;;;;;;5032997;28;20080;-71
2022/09/07 07:16:41;;;;;;;12.70;10.40;;;;;;;;;;5034292;28;20045;-71
2022/09/07 07:19:07;;;;;;;14.90;10.98;;;;;;;;;;5032507;28;20091;-71
2022/09/07 07:21:33;;;;;;;16.95;11.55;;;;;;;;;;5025288;28;20038;-71
2022/09/07 07:23:59;;;;;;;12.95;11.60;;;;;;;;;;5034098;28;20045;-71
2022/09/07 07:26:25;;;;;;;19.30;11.60;;;;;;;;;;5015678;28;20044;-71
2022/09/07 07:28:53;;;;;;;16.15;12.40;;;;;;;;;;5034171;28;20520;-71
2022/09/07 07:31:20;;;;;;;24.05;13.13;;;;;;;;;;5032501;28;20040;-71
2022/09/07 07:33:47;;;;;;;17.50;12.30;;;;;;;;;;5038254;28;20132;-71
2022/09/07 07:36:17;;;;;;;17.63;13.85;;;;;;;;;;5025878;28;20056;-71
2022/09/07 07:38:46;;;;;;;15.18;12.80;;;;;;;;;;5033142;28;20068;-72
2022/09/07 07:41:12;;;;;;;19.13;14.60;;;;;;;;;;5033055;28;20026;-71
2022/09/07 07:43:38;;;;;;;19.05;13.40;;;;;;;;;;5022521;28;20078;-71
2022/09/07 07:46:05;;;;;;;16.98;12.20;;;;;;;;;;5030175;28;20052;-71
2022/09/07 07:48:31;;;;;;;17.90;13.63;;;;;;;;;;5033606;28;20040;-71
2022/09/07 07:50:58;;;;;;;14.60;13.07;;;;;;;;;;5050998;28;20045;-71
2022/09/07 07:53:25;;;;;;;17.73;13.43;;;;;;;;;;5031304;28;20091;-71
2022/09/07 07:55:51;;;;;;;17.35;13.85;;;;;;;;;;5032542;28;20040;-71
2022/09/07 07:58:17;;;;;;;16.05;13.25;;;;;;;;;;5033105;28;20029;-71
2022/09/07 08:00:43;;;;;;;20.67;13.63;;;;;;;;;;5030017;28;20034;-71
2022/09/07 08:03:09;;;;;;;18.40;13.55;;;;;;;;;;5032083;28;20037;-71
2022/09/07 08:05:36;;;;;;;20.58;15.10;;;;;;;;;;5032345;28;20108;-72
2022/09/07 08:08:02;;;;;;;23.05;14.40;;;;;;;;;;5045069;28;20079;-72
2022/09/07 08:10:29;;;;;;;15.82;13.52;;;;;;;;;;5027650;28;20033;-72
2022/09/07 08:12:55;;;;;;;16.27;13.35;;;;;;;;;;5032907;28;20362;-71
2022/09/07 08:15:21;;;;;;;14.80;12.38;;;;;;;;;;5027839;28;20096;-71
2022/09/07 08:17:48;;;;;;;13.38;11.98;;;;;;;;;;5026690;28;20041;-71
2022/09/07 08:20:14;;;;;;;13.82;11.93;;;;;;;;;;5032298;28;20048;-72
2022/09/07 08:22:40;;;;;;;14.38;11.23;;;;;;;;;;5031909;28;20049;-71
2022/09/07 08:25:07;;;;;;;11.98;10.77;;;;;;;;;;5029287;28;20459;-71
2022/09/07 08:27:33;;;;;;;12.20;9.75;;;;;;;;;;5030979;28;20037;-71
2022/09/07 08:29:59;;;;;;;11.43;10.23;;;;;;;;;;5016178;28;20026;-71
2022/09/07 08:32:26;;;;;;;10.35;9.13;;;;;;;;;;5024962;28;20049;-71
2022/09/07 08:34:52;;;;;;;10.43;8.27;;;;;;;;;;5031215;28;20033;-72
2022/09/07 08:37:18;;;;;;;9.70;8.63;;;;;;;;;;5032332;28;20104;-72
2022/09/07 08:39:44;;;;;;;12.60;8.60;;;;;;;;;;5029836;28;20044;-71
2022/09/07 08:42:22;;;;;;;10.43;8.10;;;;;;;;;;5039237;28;20432;-71
2022/09/07 08:44:56;;;;;;;9.90;8.90;;;;;;;;;;5033975;28;20030;-71
2022/09/07 08:47:40;;;;;;;10.23;8.52;;;;;;;;;;5031828;28;20052;-72
2022/09/07 08:50:12;;;;;;;9.20;8.13;;;;;;;;;;5031647;28;20096;-72
2022/09/07 08:52:42;;;;;;;9.48;7.72;;;;;;;;;;5032428;28;20084;-72
2022/09/07 08:55:14;;;;;;;11.27;8.13;;;;;;;;;;5035591;28;20079;-72
2022/09/07 08:57:44;;;;;;;9.90;7.50;;;;;;;;;;5032505;28;20477;-72
2022/09/07 09:00:14;;;;;;;8.88;7.35;;;;;;;;;;5031491;28;20029;-72
2022/09/07 09:02:40;;;;;;;7.28;6.57;;;;;;;;;;5023858;28;20061;-72
2022/09/07 09:05:26;;;;;;;7.65;6.45;;;;;;;;;;5031665;28;20029;-72
2022/09/07 09:07:56;;;;;;;9.93;6.10;;;;;;;;;;5033630;28;20029;-72
2022/09/07 09:10:45;;;;;;;7.72;6.13;;;23.40;99.90;;;;;;5031571;28;20029;-72
2022/09/07 09:13:18;;;;;;;5.57;4.68;;;23.90;99.90;;;;;;5042625;28;20056;-72
2022/09/07 09:16:02;;;;;;;7.13;3.80;;;24.50;99.90;;;;;;5041583;28;20022;-72
2022/09/07 09:18:56;;;;;;;4.28;3.70;;;24.60;99.90;;;;;;5033449;28;20091;-72
2022/09/07 09:21:22;;;;;;;5.82;3.53;;;;;;;;;;5020426;28;20386;-72
2022/09/07 09:23:52;;;;;;;7.38;3.92;;;25.30;99.90;;;;;;5026666;28;20041;-72
2022/09/07 09:26:30;;;;;;;4.97;3.38;;;25.50;99.90;;;;;;5014842;28;20113;-72
2022/09/07 09:28:56;;;;;;;5.88;3.13;;;;;;;;;;5011898;28;20500;-72
2022/09/07 09:31:30;;;;;;;5.90;2.90;;;25.10;99.90;;;;;;5031865;28;20504;-72
2022/09/07 09:34:08;;;;;;;4.72;2.60;;;25.30;99.90;;;;;;5016925;28;20036;-72
2022/09/07 09:36:45;;;;;;;4.32;2.50;;;25.40;99.90;;;;;;5041484;28;20094;-72
2022/09/07 09:39:31;;;;;;;4.13;1.85;;;25.30;99.90;;;;;;5031613;28;20037;-72
2022/09/07 09:42:21;;;;;;;6.50;1.98;;;24.80;99.90;;;;;;5028584;28;20052;-72
2022/09/07 09:44:47;;;;;;;3.35;1.80;;;24.70;99.90;;;;;;5029018;28;20071;-72
2022/09/07 09:47:39;;;;;;;2.33;1.75;;;24.60;99.90;;;;;;5036628;28;20033;-72
2022/09/07 09:50:16;;;;;;;2.22;1.77;;;25.40;99.90;;;;;;5031097;28;20114;-72
2022/09/07 09:52:45;;;;;;;5.68;2.05;;;26.00;99.90;;;;;;5013734;28;20033;-72
2022/09/07 09:55:30;;;;;;;5.28;1.90;;;;;;;;;;5030058;28;20377;-72
2022/09/07 09:57:59;;;;;;;1.98;1.48;;;;;;;;;;5029018;28;20041;-72
2022/09/07 10:00:26;;;;;;;3.75;1.42;;;;;;;;;;5030698;28;20054;-72
2022/09/07 10:03:04;;;;;;;2.03;1.42;;;28.50;99.90;;;;;;5011303;28;20034;-72
2022/09/07 10:05:37;;;;;;;3.58;1.38;;;;;;;;;;5028817;28;20381;-72
2022/09/07 10:08:06;;;;;;;2.08;1.40;;;;;;;;;;5034141;28;20033;-73
2022/09/07 10:10:31;;;;;;;2.38;1.13;;;29.70;99.90;;;;;;5030865;28;20079;-73
2022/09/07 10:12:58;;;;;;;1.30;1.00;;;;;;;;;;5012630;28;20146;-73
2022/09/07 10:15:30;;;;;;;4.03;1.25;;;30.40;99.90;;;;;;5034742;28;20119;-73
2022/09/07 10:17:57;;;;;;;2.42;1.25;;;30.50;98.90;;;;;;5028368;28;20381;-73
2022/09/07 10:20:35;;;;;;;1.95;1.30;;;30.70;99.90;;;;;;5030484;28;20038;-72
2022/09/07 10:23:01;;;;;;;2.53;1.15;;;;;;;;;;5033358;28;20060;-72
2022/09/07 10:25:44;;;;;;;2.60;1.58;;;31.10;99.90;;;;;;5040530;28;20374;-72
2022/09/07 10:28:13;;;;;;;2.28;0.82;;;31.00;98.50;;;;;;5021065;28;20373;-73
2022/09/07 10:30:47;;;;;;;2.67;1.30;;;31.00;99.90;;;;;;5030392;28;20034;-72
2022/09/07 10:33:47;;;;;;;2.42;1.60;;;31.20;94.60;;;;;;5029227;28;20385;-72
2022/09/07 10:36:37;;;;;;;2.95;0.95;;;31.20;99.90;;;;;;5010846;28;20042;-72
2022/09/07 10:39:11;;;;;;;1.65;0.80;;;;;;;;;;5026343;28;20394;-72
2022/09/07 10:42:06;;;;;;;2.53;1.17;;;31.30;94.50;;;;;;5012217;28;20492;-72
2022/09/07 10:44:43;;;;;;;2.38;1.50;;;30.40;93.60;;;;;;5030671;28;20452;-72
2022/09/07 10:47:09;;;;;;;2.28;1.10;;;;;;;;;;5027675;28;20029;-71
2022/09/07 10:49:43;;;;;;;1.48;0.98;;;28.50;98.20;;;;;;5030428;28;20026;-72
2022/09/07 10:52:34;;;;;;;1.90;1.10;;;28.60;96.40;;;;;;5027075;28;20033;-72
2022/09/07 10:55:25;;;;;;;2.30;1.38;;;28.00;99.90;;;;;;5029559;28;20377;-72
2022/09/07 10:57:51;;;;;;;4.85;1.30;;;;;;;;;;5035339;28;20462;-72
2022/09/07 11:00:19;;;;;;;1.75;1.10;;;27.80;99.90;;;;;;5029432;28;20025;-72
2022/09/07 11:03:18;;;;;;;4.25;1.40;;;28.20;99.90;;;;;;5029913;28;20044;-72
2022/09/07 11:06:04;;;;;;;2.65;1.25;;;29.00;99.00;;;;;;5028949;28;20030;-72
2022/09/07 11:08:58;;;;;;;3.22;1.48;;;28.90;98.30;;;;;;5024594;28;20029;-72
2022/09/07 11:11:36;;;;;;;2.03;1.10;;;28.00;99.10;;;;;;5013039;28;20014;-72
2022/09/07 11:14:04;;;;;;;2.08;1.10;;;;;;;;;;5029365;28;20042;-72
2022/09/07 11:16:36;;;;;;;1.60;1.10;;;26.50;99.90;;;;;;5033596;28;20109;-72
2022/09/07 11:19:05;;;;;;;4.55;1.52;;;;;;;;;;5029539;28;20120;-72
2022/09/07 11:21:40;;;;;;;4.63;1.48;;;25.80;99.90;;;;;;5041353;28;20040;-71
2022/09/07 11:24:42;;;;;;;3.85;1.58;;;25.90;99.90;;;;;;5012875;28;20068;-72
2022/09/07 11:27:19;;;;;;;2.15;1.20;;;25.90;99.90;;;;;;4972073;28;20401;-72
2022/09/07 11:29:45;;;;;;;2.40;1.40;;;;;;;;;;5033746;28;20064;-72
2022/09/07 11:32:32;;;;;;;3.47;1.70;;;;;;;;;;5047614;28;20033;-72
2022/09/07 11:35:06;;;;;;;3.63;1.48;;;25.50;99.90;;;;;;5013244;28;20029;-72
2022/09/07 11:37:58;;;;;;;2.08;1.40;;;25.20;99.90;;;;;;5015905;28;20042;-72
2022/09/07 11:40:26;;;;;;;;;;;25.20;99.90;;;;;;5016282;28;20057;-72
2022/09/07 11:43:13;;;;;;;3.88;1.08;;;25.30;99.90;;;;;;5031206;28;20004;-72
2022/09/07 11:45:43;;;;;;;2.10;1.00;;;;;;;;;;5030655;28;20033;-72
2022/09/07 11:48:20;;;;;;;2.33;1.00;;;25.70;99.90;;;;;;5015087;28;20527;-71
2022/09/07 11:50:52;;;;;;;1.33;0.90;;;25.90;99.90;;;;;;5033623;28;20116;-72
2022/09/07 11:53:26;;;;;;;1.67;0.88;;;26.00;99.90;;;;;;5032232;28;20017;-72
2022/09/07 11:56:01;;;;;;;2.22;0.90;;;26.20;99.90;;;;;;5031939;28;20072;-72
2022/09/07 11:58:45;;;;;;;3.78;1.48;;;26.40;99.90;;;;;;5030495;28;20022;-72
2022/09/07 12:01:14;;;;;;;3.20;1.38;;;;;;;;;;5033331;28;20040;-72
2022/09/07 12:04:15;;;;;;;3.53;1.35;;;26.50;99.90;;;;;;5030618;28;20120;-72
2022/09/07 12:07:05;;;;;;;2.90;1.20;;;26.10;99.90;;;;;;5030183;28;20472;-72
2022/09/07 12:09:31;;;;;;;1.35;0.82;;;;;;;;;;5032371;28;20052;-72
2022/09/07 12:12:23;;;;;;;1.25;0.70;;;26.00;99.90;;;;;;5015145;28;20042;-72
2022/09/07 12:14:56;;;;;;;;;;;26.10;99.90;;;;;;5019536;28;20052;-72
2022/09/07 12:17:35;;;;;;;1.38;1.00;;;26.30;99.90;;;;;;5032429;28;19920;-72
2022/09/07 12:20:19;;;;;;;4.15;1.33;;;26.80;99.90;;;;;;5030610;28;20026;-72
2022/09/07 12:22:54;;;;;;;2.95;1.10;;;27.10;99.90;;;;;;5032382;28;20036;-72
2022/09/07 12:25:20;;;;;;;1.75;0.93;;;;;;;;;;5032512;28;20034;-72
2022/09/07 12:27:46;;;;;;;4.30;1.10;;;27.70;99.90;;;;;;5032104;28;20037;-72
2022/09/07 12:30:12;;;;;;;2.25;1.23;;;;;;;;;;5031436;28;20041;-72
2022/09/07 12:32:47;;;;;;;6.18;1.25;;;;;;;;;;5031180;28;20030;-71
2022/09/07 12:35:40;;;;;;;2.97;0.82;;;27.70;99.90;;;;;;5031070;28;20034;-72
2022/09/07 12:38:13;;;;;;;2.17;1.33;;;;;;;;;;5051332;28;20095;-72
2022/09/07 12:40:44;;;;;;;2.05;1.35;;;27.00;99.90;;;;;;5068865;28;20037;-71
2022/09/07 12:43:13;;;;;;;2.55;1.20;;;26.80;99.90;;;;;;5062040;28;20390;-71
2022/09/07 12:45:46;;;;;;;2.83;1.02;;;26.70;99.90;;;;;;5050780;28;20028;-71
2022/09/07 12:48:12;;;;;;;1.30;0.90;;;;;;;;;;5049287;28;20021;-71
2022/09/07 12:50:57;;;;;;;2.85;0.93;;;26.70;99.90;;;;;;5052100;28;20583;-71
2022/09/07 12:53:55;;;;;;;4.30;1.50;;;26.30;99.90;;;;;;5050631;28;20059;-72
2022/09/07 12:56:21;;;;;;;2.83;1.23;;;;;;;;;;5057255;28;20039;-72
2022/09/07 12:59:10;;;;;;;4.75;1.30;;;26.80;99.90;;;;;;5063797;28;20458;-71
2022/09/07 13:02:04;;;;;;;2.55;1.38;;;26.90;99.90;;;;;;5051405;28;20107;-72
2022/09/07 13:04:51;;;;;;;5.38;1.30;;;26.70;99.90;;;;;;5047618;28;20057;-71
2022/09/07 13:07:47;;;;;;;4.20;1.83;;;26.10;99.90;;;;;;5050051;28;20376;-71
2022/09/07 13:10:32;;;;;;;3.88;1.50;;;26.30;99.90;;;;;;5043841;28;20112;-72
2022/09/07 13:13:06;;;;;;;2.70;1.27;;;26.10;99.90;;;;;;5044988;28;20033;-72
2022/09/07 13:15:43;;;;;;;3.05;1.40;;;25.70;99.90;;;;;;5049912;28;20056;-72
2022/09/07 13:18:27;;;;;;;1.50;1.30;;;25.80;99.90;;;;;;5048523;28;20037;-72
2022/09/07 13:21:08;;;;;;;1.45;1.30;;;26.10;99.90;;;;;;5047575;28;20025;-72
2022/09/07 13:23:38;;;;;;;2.15;1.65;;;26.30;99.90;;;;;;5032422;28;20390;-72
2022/09/07 13:26:07;;;;;;;2.92;1.52;;;26.40;99.90;;;;;;5050287;28;20419;-72
2022/09/07 13:28:55;;;;;;;2.20;1.50;;;26.00;99.90;;;;;;5051631;28;20036;-71
2022/09/07 13:31:42;;;;;;;2.42;1.30;;;26.10;99.90;;;;;;5048433;28;20028;-72
2022/09/07 13:34:32;;;;;;;2.28;1.45;;;26.30;99.90;;;;;;5050879;28;20090;-72
2022/09/07 13:37:03;;;;;;;1.70;1.20;;;26.50;99.90;;;;;;5062222;28;20425;-72
2022/09/07 13:39:38;;;;;;;2.85;1.27;;;26.30;99.90;;;;;;5049682;28;20041;-71
2022/09/07 13:42:04;;;;;;;1.58;1.48;;;26.20;99.90;;;;;;5049568;28;20084;-71
2022/09/07 13:44:32;;;;;;;1.60;1.00;;;26.30;99.90;;;;;;5048363;28;20040;-72
2022/09/07 13:47:07;;;;;;;2.17;1.20;;;;;;;;;;5053365;28;20029;-71
2022/09/07 13:49:59;;;;;;;2.10;1.00;;;26.00;99.90;;;;;;5049883;28;20044;-71
2022/09/07 13:52:27;;;;;;;;;;;26.10;99.90;;;;;;5051723;28;20031;-71
2022/09/07 13:55:44;;;;;;;1.52;0.82;;;25.90;99.90;;;;;;5047366;28;19905;-72
2022/09/07 13:58:16;;;;;;;2.08;0.90;;;;;;;;;;5015354;28;20048;-71
2022/09/07 14:00:55;;;;;;;2.33;1.00;;;26.10;99.90;;;;;;5045830;28;20029;-71
2022/09/07 14:03:23;;;;;;;3.28;1.05;;;25.90;99.90;;;;;;5031380;28;20039;-71
2022/09/07 14:05:49;;;;;;;2.83;1.23;;;;;;;;;;5030041;28;20033;-72
2022/09/07 14:08:26;;;;;;;3.03;1.00;;;26.30;99.90;;;;;;5031538;28;20025;-71
2022/09/07 14:10:51;;;;;;;1.95;0.75;;;26.50;99.90;;;;;;5056351;28;20090;-72
2022/09/07 14:13:18;;;;;;;2.05;0.50;;;26.70;99.90;;;;;;5055120;28;20045;-71
2022/09/07 14:15:45;;;;;;;2.83;0.65;;;;;;;;;;5049534;28;20044;-72
2022/09/07 14:18:18;;;;;;;0.85;0.40;;;26.80;96.20;;;;;;5049171;28;20039;-71
2022/09/07 14:20:53;;;;;;;3.03;0.50;;;26.70;97.50;;;;;;5059644;28;20025;-72
2022/09/07 14:23:48;;;;;;;1.63;0.40;;;26.70;97.80;;;;;;5051144;28;20037;-71